This is the latest recevied weather packets stored in our database for station/object KO4MMQ-10. If no packets are shown the sender has not sent any weather packets the latest 10 day(s).
| Time | Temp. | Humidity | Pressure | Rain* | Wind** | Luminosity | Snow |
|---|---|---|---|---|---|---|---|
| 1777433908 | 20° C | 96% | 1012.1 hPa | 16.76 mm | - | - | - |
| 1777430908 | 20.56° C | 96% | 1011.3 hPa | 29.46 mm | - | - | - |
| 1777429108 | 20.56° C | 96% | 1012.1 hPa | 16.26 mm | - | - | - |
| 1777428507 | 20.56° C | 96% | 1011.6 hPa | 17.53 mm | - | - | - |
| 1777424907 | 20.56° C | 96% | 1010.7 hPa | 0.25 mm | - | - | - |
| 1777422507 | 21.11° C | 95% | 1011.2 hPa | 0.76 mm | - | - | - |
| 1777421907 | 21.11° C | 95% | 1011.1 hPa | 0.76 mm | - | - | - |
| 1777421308 | 21.11° C | 95% | 1010.9 hPa | 0.76 mm | - | - | - |
| 1777420708 | 21.11° C | 95% | 1011.7 hPa | 0.76 mm | - | - | - |
| 1777418907 | 21.67° C | 95% | 1011.7 hPa | 0 mm | - | - | - |
| 1777418307 | 21.11° C | 96% | 1012.1 hPa | 0.25 mm | - | - | - |
| 1777417708 | 21.11° C | 95% | 1012 hPa | 0.25 mm | - | - | - |
| 1777417107 | 21.11° C | 95% | 1012 hPa | 0.25 mm | - | - | - |
| 1777416507 | 21.11° C | 95% | 1012 hPa | 0.25 mm | - | - | - |
| 1777415308 | 20.56° C | 95% | 1012 hPa | 7.37 mm | - | - | - |
| 1777414708 | 20.56° C | 95% | 1011.4 hPa | 7.37 mm | - | - | - |
| 1777414108 | 20.56° C | 95% | 1010.5 hPa | 15.75 mm | - | - | - |
| 1777413507 | 20.56° C | 94% | 1008.8 hPa | 23.11 mm | - | - | - |
| 1777412908 | 20.56° C | 94% | 1009.8 hPa | 23.11 mm | - | - | - |
| 1777410507 | 22.22° C | 90% | 1012.4 hPa | 7.37 mm | - | - | - |
| 1777405108 | 26.11° C | 80% | 1012.5 hPa | 0 mm | - | - | - |
| 1777403308 | 25° C | 84% | 1013.9 hPa | 0 mm | - | - | - |
| 1777402708 | 25° C | 83% | 1014.3 hPa | 0 mm | - | - | - |
| 1777402108 | 25.56° C | 82% | 1014.5 hPa | 0 mm | - | - | - |
| 1777401509 | 25° C | 83% | 1014.6 hPa | 0 mm | - | - | - |
* Rain latest hour (hover to see other rain measurements)
** Current wind speed in m/s (hover to see current wind gust speed)